createdAt,value
2023-03-17T00:01:21.834Z,4.19
2023-03-17T00:03:51.637Z,4.14
2023-03-17T00:06:26.123Z,4.06
2023-03-17T00:08:54.050Z,4.09
2023-03-17T00:11:22.237Z,4.14
2023-03-17T00:13:51.762Z,4.36
2023-03-17T00:16:22.075Z,4.34
2023-03-17T00:18:51.491Z,4.33
2023-03-17T00:21:25.571Z,4.20
2023-03-17T00:23:53.669Z,4.07
2023-03-17T00:26:22.523Z,4.17
2023-03-17T00:28:53.030Z,4.20
2023-03-17T00:31:23.568Z,4.04
2023-03-17T00:33:54.131Z,4.18
2023-03-17T00:36:24.059Z,4.34
2023-03-17T00:38:52.687Z,4.13
2023-03-17T00:41:21.500Z,4.24
2023-03-17T00:43:49.813Z,4.16
2023-03-17T00:46:25.437Z,4.33
2023-03-17T00:48:54.334Z,4.28
2023-03-17T00:51:23.449Z,4.21
2023-03-17T00:53:51.864Z,4.34
2023-03-17T00:56:21.607Z,4.05
2023-03-17T00:58:50.224Z,4.22
2023-03-17T01:01:19.971Z,4.02
2023-03-17T01:03:48.033Z,4.24
2023-03-17T01:06:17.713Z,4.16
2023-03-17T01:08:46.568Z,4.18
2023-03-17T01:11:18.832Z,4.17
2023-03-17T01:13:47.699Z,4.18
2023-03-17T01:18:46.675Z,4.27
2023-03-17T01:21:15.407Z,4.28
2023-03-17T01:23:43.681Z,4.40
2023-03-17T01:26:11.831Z,4.44
2023-03-17T01:28:39.856Z,4.30
2023-03-17T01:31:07.785Z,4.41
2023-03-17T01:33:35.716Z,4.40
2023-03-17T01:36:05.387Z,4.21
2023-03-17T01:38:33.282Z,4.27
2023-03-17T01:41:02.342Z,4.24
2023-03-17T01:43:31.568Z,4.27
2023-03-17T01:46:20.818Z,4.08
2023-03-17T01:48:57.212Z,4.29
2023-03-17T01:51:30.029Z,4.24
2023-03-17T01:53:58.612Z,4.17
2023-03-17T01:56:27.103Z,4.11
2023-03-17T01:58:57.541Z,4.25
2023-03-17T02:01:32.053Z,4.17
2023-03-17T02:04:01.035Z,4.22
2023-03-17T02:06:30.385Z,4.27
2023-03-17T02:08:59.222Z,4.24
2023-03-17T02:11:27.654Z,4.11
2023-03-17T02:13:55.731Z,4.29
2023-03-17T02:16:23.775Z,4.33
2023-03-17T02:18:51.811Z,4.46
2023-03-17T02:21:42.144Z,4.28
2023-03-17T02:24:18.534Z,4.39
2023-03-17T02:26:48.460Z,4.28
2023-03-17T02:29:16.774Z,4.29
2023-03-17T02:31:45.870Z,4.34
2023-03-17T02:34:13.922Z,4.27
2023-03-17T02:36:43.418Z,4.37
2023-03-17T02:39:11.385Z,4.28
2023-03-17T02:41:39.323Z,4.26
2023-03-17T02:44:07.345Z,4.29
2023-03-17T02:46:35.747Z,4.31
2023-03-17T02:49:04.360Z,4.33
2023-03-17T02:51:32.285Z,4.51
2023-03-17T02:54:01.878Z,4.56
2023-03-17T02:56:29.852Z,4.58
2023-03-17T02:58:57.839Z,4.26
2023-03-17T03:01:26.922Z,4.37
2023-03-17T03:03:54.953Z,4.60
2023-03-17T03:06:23.773Z,4.44
2023-03-17T03:08:52.044Z,4.45
2023-03-17T03:11:21.605Z,4.29
2023-03-17T03:13:49.515Z,4.43
2023-03-17T03:16:17.648Z,4.41
2023-03-17T03:18:45.676Z,4.38
2023-03-17T03:21:13.946Z,4.38
2023-03-17T03:23:41.795Z,4.51
2023-03-17T03:26:09.852Z,4.49
2023-03-17T03:28:39.199Z,4.67
2023-03-17T03:31:07.509Z,4.52
2023-03-17T03:33:35.616Z,4.53
2023-03-17T03:36:03.892Z,4.54
2023-03-17T03:38:31.866Z,4.58
2023-03-17T03:40:59.943Z,4.59
2023-03-17T03:43:27.944Z,4.48
2023-03-17T03:45:57.276Z,4.58
2023-03-17T03:48:25.619Z,4.59
2023-03-17T03:50:57.807Z,4.67
2023-03-17T03:53:26.242Z,4.51
2023-03-17T03:55:54.348Z,4.72
2023-03-17T03:58:22.768Z,4.60
2023-03-17T04:00:51.188Z,4.54
2023-03-17T04:03:20.713Z,4.65
2023-03-17T04:05:48.726Z,4.53
2023-03-17T04:08:16.699Z,4.70
2023-03-17T04:10:44.654Z,4.69
2023-03-17T04:13:12.949Z,4.71
2023-03-17T04:15:40.901Z,4.49
2023-03-17T04:18:09.735Z,4.58
2023-03-17T04:20:39.346Z,4.55
2023-03-17T04:23:08.023Z,4.61
2023-03-17T04:25:36.715Z,4.65
2023-03-17T04:28:04.876Z,4.46
2023-03-17T04:30:33.325Z,4.67
2023-03-17T04:33:01.430Z,4.61
2023-03-17T04:35:29.458Z,4.60
2023-03-17T04:37:58.783Z,4.63
2023-03-17T04:40:26.749Z,4.61
2023-03-17T04:42:54.617Z,4.54
2023-03-17T04:45:22.699Z,4.67
2023-03-17T04:47:51.021Z,4.76
2023-03-17T04:50:19.119Z,4.80
2023-03-17T04:52:46.999Z,4.85
2023-03-17T04:55:16.613Z,4.84
2023-03-17T04:57:45.044Z,4.96
2023-03-17T05:00:15.548Z,4.97
2023-03-17T05:02:44.259Z,4.98
2023-03-17T05:05:12.312Z,5.11
2023-03-17T05:07:40.665Z,5.11
2023-03-17T05:10:09.608Z,5.11
2023-03-17T05:12:38.992Z,5.15
2023-03-17T05:15:08.055Z,5.15
2023-03-17T05:17:36.054Z,5.17
2023-03-17T05:20:04.366Z,5.15
2023-03-17T05:22:32.332Z,5.24
2023-03-17T05:25:00.349Z,5.27
2023-03-17T05:27:28.291Z,5.48
2023-03-17T05:29:57.795Z,5.38
2023-03-17T05:32:25.946Z,5.46
2023-03-17T05:34:53.937Z,5.41
2023-03-17T05:37:22.669Z,5.58
2023-03-17T05:39:51.091Z,5.65
2023-03-17T05:42:19.009Z,5.60
2023-03-17T05:44:47.058Z,5.57
2023-03-17T05:47:16.390Z,5.40
2023-03-17T05:49:44.365Z,5.61
2023-03-17T05:52:12.316Z,5.68
2023-03-17T05:54:40.675Z,5.53
2023-03-17T05:57:08.831Z,5.49
2023-03-17T05:59:37.059Z,6.17
2023-03-17T06:02:05.065Z,6.85
2023-03-17T06:04:34.373Z,7.52
2023-03-17T06:07:02.429Z,7.85
2023-03-17T06:09:30.538Z,8.29
2023-03-17T06:11:58.794Z,8.16
2023-03-17T06:14:27.245Z,8.35
2023-03-17T06:16:55.723Z,8.43
2023-03-17T06:19:23.698Z,8.50
2023-03-17T06:21:53.054Z,8.30
2023-03-17T06:24:21.287Z,8.08
2023-03-17T06:26:49.193Z,8.00
2023-03-17T06:29:17.352Z,7.44
2023-03-17T06:31:50.401Z,6.97
2023-03-17T06:34:18.562Z,7.37
2023-03-17T06:36:46.433Z,7.48
2023-03-17T06:39:18.100Z,7.67
2023-03-17T06:41:46.096Z,8.17
2023-03-17T06:44:14.208Z,8.89
2023-03-17T06:46:42.571Z,8.78
2023-03-17T06:49:13.433Z,8.75
2023-03-17T06:51:41.694Z,9.24
2023-03-17T06:54:09.708Z,9.01
2023-03-17T06:56:39.106Z,9.22
2023-03-17T06:59:07.047Z,9.55
2023-03-17T07:01:36.342Z,9.20
2023-03-17T07:04:05.420Z,9.39
2023-03-17T07:06:33.730Z,9.09
2023-03-17T07:09:02.379Z,9.40
2023-03-17T07:11:30.813Z,9.00
2023-03-17T07:14:00.269Z,8.97
2023-03-17T07:16:28.935Z,9.26
2023-03-17T07:18:56.933Z,8.81
2023-03-17T07:21:24.868Z,9.38
2023-03-17T07:23:52.770Z,9.65
2023-03-17T07:26:20.801Z,9.30
2023-03-17T07:28:48.694Z,9.91
2023-03-17T07:31:18.013Z,9.93
2023-03-17T07:33:46.332Z,10.29
2023-03-17T07:36:15.883Z,10.21
2023-03-17T07:38:44.368Z,10.40
2023-03-17T07:41:12.344Z,10.50
2023-03-17T07:43:40.536Z,10.41
2023-03-17T07:46:08.610Z,10.43
2023-03-17T07:48:42.093Z,9.83
2023-03-17T07:51:14.667Z,10.16
2023-03-17T07:53:43.002Z,9.28
2023-03-17T07:56:11.178Z,9.76
2023-03-17T07:58:40.224Z,11.06
2023-03-17T08:01:09.899Z,11.16
2023-03-17T08:03:41.443Z,11.67
2023-03-17T08:06:10.054Z,12.03
2023-03-17T08:08:38.520Z,12.25
2023-03-17T08:11:07.788Z,11.50
2023-03-17T08:13:36.175Z,11.90
2023-03-17T08:16:04.122Z,11.46
2023-03-17T08:18:32.108Z,11.33
2023-03-17T08:21:02.114Z,11.48
2023-03-17T08:23:30.180Z,12.07
2023-03-17T08:25:58.706Z,12.00
2023-03-17T08:28:27.253Z,12.11
2023-03-17T08:30:55.846Z,10.80
2023-03-17T08:33:23.872Z,11.12
2023-03-17T08:35:52.191Z,11.32
2023-03-17T08:38:21.678Z,12.01
2023-03-17T08:40:50.987Z,12.09
2023-03-17T08:43:19.049Z,11.61
2023-03-17T08:45:47.085Z,11.20
2023-03-17T08:48:15.371Z,10.61
2023-03-17T08:50:43.474Z,10.68
2023-03-17T08:53:11.975Z,10.26
2023-03-17T08:55:41.338Z,9.68
2023-03-17T08:58:09.572Z,9.25
2023-03-17T09:00:37.449Z,9.20
2023-03-17T09:03:05.826Z,9.20
2023-03-17T09:05:35.619Z,9.09
2023-03-17T09:08:05.655Z,9.08
2023-03-17T09:10:34.158Z,9.54
2023-03-17T09:13:04.708Z,9.60
2023-03-17T09:15:34.098Z,9.02
2023-03-17T09:18:03.305Z,9.29
2023-03-17T09:20:31.688Z,9.29
2023-03-17T09:23:00.395Z,9.24
2023-03-17T09:25:28.494Z,9.10
2023-03-17T09:27:56.758Z,9.63
2023-03-17T09:30:27.292Z,9.57
2023-03-17T09:32:55.386Z,9.46
2023-03-17T09:35:23.418Z,9.77
2023-03-17T09:37:51.613Z,10.12
2023-03-17T09:40:22.526Z,10.32
2023-03-17T09:43:02.010Z,11.46
2023-03-17T09:45:35.371Z,11.68
2023-03-17T09:48:39.477Z,12.70
2023-03-17T09:51:09.397Z,13.24
2023-03-17T09:53:46.224Z,13.42
2023-03-17T09:56:17.133Z,13.34
2023-03-17T09:58:51.941Z,12.68
2023-03-17T10:01:22.007Z,12.03
2023-03-17T10:03:50.874Z,10.90
2023-03-17T10:06:34.852Z,11.27
2023-03-17T10:09:11.571Z,11.50
2023-03-17T10:11:43.081Z,10.30
2023-03-17T10:14:33.696Z,10.31
2023-03-17T10:17:13.084Z,10.64
2023-03-17T10:19:44.257Z,10.84
2023-03-17T10:22:19.483Z,10.55
2023-03-17T10:24:51.932Z,10.85
2023-03-17T10:27:20.133Z,10.97
2023-03-17T10:29:48.723Z,11.07
2023-03-17T10:32:18.175Z,11.29
2023-03-17T10:34:48.641Z,11.03
2023-03-17T10:37:19.535Z,11.66
2023-03-17T10:39:50.507Z,11.38
2023-03-17T10:42:24.646Z,10.98
2023-03-17T10:44:56.216Z,11.42
2023-03-17T10:47:30.274Z,11.40
2023-03-17T10:49:59.765Z,10.96
2023-03-17T10:52:30.195Z,11.19
2023-03-17T10:55:03.762Z,11.35
2023-03-17T10:57:31.823Z,11.03
2023-03-17T11:00:03.811Z,10.91
2023-03-17T11:02:44.309Z,10.54
2023-03-17T11:05:21.585Z,10.26
2023-03-17T11:07:49.636Z,10.24
2023-03-17T11:10:22.543Z,10.06
2023-03-17T11:12:58.806Z,9.89
2023-03-17T11:15:33.786Z,9.73
2023-03-17T11:18:05.741Z,9.77
2023-03-17T11:20:45.737Z,9.55
2023-03-17T11:23:23.754Z,9.37
2023-03-17T11:26:02.219Z,9.88
2023-03-17T11:28:36.304Z,10.50
2023-03-17T11:31:13.156Z,10.60
2023-03-17T11:33:49.976Z,10.95
2023-03-17T11:36:33.684Z,10.84
2023-03-17T11:39:08.997Z,10.92
2023-03-17T11:41:46.020Z,11.42
2023-03-17T11:44:50.151Z,10.97
2023-03-17T11:47:33.384Z,11.20
2023-03-17T11:50:14.251Z,11.24
2023-03-17T11:52:53.250Z,11.45
2023-03-17T11:55:25.806Z,11.68
2023-03-17T11:57:59.407Z,11.18
2023-03-17T12:00:33.760Z,10.78
2023-03-17T12:03:12.886Z,10.70
2023-03-17T12:05:42.730Z,10.91
2023-03-17T12:08:21.444Z,11.24
2023-03-17T12:10:54.236Z,11.12
2023-03-17T12:13:26.696Z,11.27
2023-03-17T12:16:02.021Z,11.40
2023-03-17T12:18:35.313Z,11.24
2023-03-17T12:21:12.120Z,11.37
2023-03-17T12:23:48.191Z,10.90
2023-03-17T12:26:19.224Z,10.82
2023-03-17T12:28:52.385Z,11.19
2023-03-17T12:31:23.948Z,11.30
2023-03-17T12:34:00.492Z,11.28
2023-03-17T12:36:30.243Z,10.86
2023-03-17T12:39:05.404Z,10.81
2023-03-17T12:42:01.724Z,11.17
2023-03-17T12:44:44.392Z,11.15
2023-03-17T12:47:36.338Z,11.42
2023-03-17T12:50:34.409Z,11.40
2023-03-17T12:53:24.518Z,10.80
2023-03-17T12:55:54.661Z,10.37
2023-03-17T12:58:30.741Z,10.66
2023-03-17T13:01:07.294Z,11.22
2023-03-17T13:03:38.619Z,11.35
2023-03-17T13:06:10.336Z,11.57
2023-03-17T13:08:43.109Z,11.54
2023-03-17T13:11:19.761Z,11.34
2023-03-17T13:13:59.375Z,11.51
2023-03-17T13:16:32.067Z,11.69
2023-03-17T13:19:24.437Z,11.66
2023-03-17T13:22:13.620Z,11.31
2023-03-17T13:24:48.974Z,11.36
2023-03-17T13:27:43.919Z,11.27
2023-03-17T13:30:55.290Z,11.16
2023-03-17T13:33:29.262Z,10.84
2023-03-17T13:36:10.757Z,11.65
2023-03-17T13:39:17.684Z,11.42
2023-03-17T13:42:05.488Z,11.58
2023-03-17T13:44:55.214Z,11.15
2023-03-17T13:47:33.505Z,10.70
2023-03-17T13:50:08.739Z,10.62
2023-03-17T13:52:43.272Z,10.60
2023-03-17T13:56:04.006Z,10.41
2023-03-17T13:58:52.856Z,10.44
2023-03-17T14:01:21.732Z,10.34
2023-03-17T14:03:51.604Z,10.68
2023-03-17T14:06:22.435Z,10.60
2023-03-17T14:08:53.419Z,10.49
2023-03-17T14:11:28.209Z,10.62
2023-03-17T14:14:32.203Z,10.10
2023-03-17T14:17:06.249Z,9.98
2023-03-17T14:19:34.559Z,9.78
2023-03-17T14:22:19.799Z,9.38
2023-03-17T14:24:53.773Z,9.37
2023-03-17T14:27:24.045Z,9.16
2023-03-17T14:29:53.706Z,9.19
2023-03-17T14:32:24.943Z,9.05
2023-03-17T14:34:57.416Z,8.93
2023-03-17T14:37:26.105Z,8.91
2023-03-17T14:39:57.547Z,8.63
2023-03-17T14:42:28.847Z,8.72
2023-03-17T14:45:07.332Z,8.74
2023-03-17T14:47:39.934Z,8.63
2023-03-17T14:50:18.098Z,8.70
2023-03-17T14:52:46.151Z,8.79
2023-03-17T14:55:15.953Z,8.73
2023-03-17T14:57:49.416Z,8.87
2023-03-17T15:00:32.949Z,8.77
2023-03-17T15:03:05.255Z,8.72
2023-03-17T15:05:39.891Z,8.51
2023-03-17T15:08:46.137Z,8.66
2023-03-17T15:11:26.369Z,8.76
2023-03-17T15:13:58.032Z,8.72
2023-03-17T15:16:30.728Z,8.67
2023-03-17T15:19:05.962Z,8.29
2023-03-17T15:21:36.586Z,8.42
2023-03-17T15:24:40.109Z,8.35
2023-03-17T15:27:15.354Z,8.24
2023-03-17T15:29:43.432Z,8.08
2023-03-17T15:32:15.516Z,8.36
2023-03-17T15:34:43.469Z,8.24
2023-03-17T15:37:22.571Z,8.16
2023-03-17T15:39:52.960Z,8.26
2023-03-17T15:42:22.883Z,8.15
2023-03-17T15:44:50.870Z,8.25
2023-03-17T15:47:22.119Z,8.25
2023-03-17T15:49:51.801Z,8.01
2023-03-17T15:52:24.971Z,7.84
2023-03-17T15:54:53.936Z,7.70
2023-03-17T15:57:21.902Z,7.84
2023-03-17T15:59:50.112Z,7.78
2023-03-17T16:02:31.669Z,7.71
2023-03-17T16:05:01.449Z,7.64
2023-03-17T16:07:30.915Z,7.56
2023-03-17T16:09:59.002Z,7.69
2023-03-17T16:12:27.031Z,7.58
2023-03-17T16:14:54.992Z,7.68
2023-03-17T16:17:28.904Z,7.68
2023-03-17T16:19:59.746Z,7.71
2023-03-17T16:22:39.374Z,7.79
2023-03-17T16:25:20.605Z,7.50
2023-03-17T16:27:50.572Z,7.42
2023-03-17T16:30:20.432Z,7.50
2023-03-17T16:32:49.420Z,7.37
2023-03-17T16:35:21.176Z,7.33
2023-03-17T16:37:52.307Z,7.37
2023-03-17T16:40:23.358Z,7.21
2023-03-17T16:42:52.119Z,7.32
2023-03-17T16:45:26.477Z,7.37
2023-03-17T16:47:55.119Z,7.20
2023-03-17T16:50:26.633Z,7.22
2023-03-17T16:52:54.891Z,7.21
2023-03-17T16:55:24.038Z,6.93
2023-03-17T16:57:54.533Z,6.97
2023-03-17T17:00:25.430Z,6.88
2023-03-17T17:02:54.433Z,7.03
2023-03-17T17:05:25.819Z,7.15
2023-03-17T17:07:56.250Z,7.19
2023-03-17T17:10:25.985Z,7.18
2023-03-17T17:12:54.528Z,6.94
2023-03-17T17:15:23.540Z,6.79
2023-03-17T17:17:55.816Z,6.74
2023-03-17T17:20:28.894Z,6.98
2023-03-17T17:22:57.160Z,7.03
2023-03-17T17:25:25.793Z,7.27
2023-03-17T17:27:54.537Z,7.37
2023-03-17T17:30:25.670Z,7.43
2023-03-17T17:32:53.748Z,7.45
2023-03-17T17:35:22.208Z,7.43
2023-03-17T17:37:51.653Z,7.31
2023-03-17T17:40:21.644Z,7.37
2023-03-17T17:42:49.522Z,7.40
2023-03-17T17:45:17.866Z,7.23
2023-03-17T17:47:45.926Z,7.22
2023-03-17T17:50:19.272Z,7.21
2023-03-17T17:52:47.914Z,7.28
2023-03-17T17:55:17.499Z,7.28
2023-03-17T17:57:45.613Z,7.24
2023-03-17T18:00:16.871Z,7.16
2023-03-17T18:02:44.950Z,6.94
2023-03-17T18:05:13.982Z,6.84
2023-03-17T18:07:41.915Z,6.72
2023-03-17T18:10:16.995Z,6.77
2023-03-17T18:12:46.528Z,6.85
2023-03-17T18:15:14.618Z,6.84
2023-03-17T18:17:43.334Z,6.79
2023-03-17T18:20:13.590Z,6.73
2023-03-17T18:22:41.988Z,6.70
2023-03-17T18:25:11.086Z,6.62
2023-03-17T18:27:39.134Z,6.58
2023-03-17T18:30:13.238Z,6.66
2023-03-17T18:32:42.835Z,6.63
2023-03-17T18:35:15.976Z,6.71
2023-03-17T18:37:44.648Z,6.66
2023-03-17T18:40:17.969Z,6.66
2023-03-17T18:42:46.615Z,6.72
2023-03-17T18:45:16.438Z,6.54
2023-03-17T18:47:44.464Z,6.56
2023-03-17T18:50:14.728Z,6.48
2023-03-17T18:52:43.937Z,6.53
2023-03-17T18:55:14.097Z,6.55
2023-03-17T18:57:44.735Z,6.42
2023-03-17T19:00:18.585Z,5.96
2023-03-17T19:02:46.957Z,6.24
2023-03-17T19:05:15.343Z,6.22
2023-03-17T19:07:43.499Z,6.31
2023-03-17T19:10:13.975Z,6.36
2023-03-17T19:12:42.841Z,6.23
2023-03-17T19:15:12.621Z,6.23
2023-03-17T19:17:43.048Z,5.99
2023-03-17T19:20:13.206Z,6.08
2023-03-17T19:22:41.642Z,6.16
2023-03-17T19:25:10.849Z,5.94
2023-03-17T19:27:38.852Z,6.11
2023-03-17T19:30:08.843Z,6.01
2023-03-17T19:32:36.748Z,5.82
2023-03-17T19:35:07.586Z,5.89
2023-03-17T19:37:36.046Z,5.88
2023-03-17T19:40:04.795Z,5.83
2023-03-17T19:42:32.693Z,5.98
2023-03-17T19:45:00.639Z,5.88
2023-03-17T19:47:28.601Z,6.01
2023-03-17T19:49:57.732Z,5.94
2023-03-17T19:52:27.039Z,6.00
2023-03-17T19:54:55.028Z,6.01
2023-03-17T19:57:22.949Z,5.98
2023-03-17T19:59:51.274Z,6.02
2023-03-17T20:02:20.471Z,5.96
2023-03-17T20:04:49.609Z,5.85
2023-03-17T20:07:17.642Z,5.82
2023-03-17T20:09:48.614Z,5.78
2023-03-17T20:12:16.712Z,5.91
2023-03-17T20:14:44.700Z,5.93
2023-03-17T20:17:14.207Z,5.85
2023-03-17T20:19:42.087Z,5.83
2023-03-17T20:22:10.057Z,5.86
2023-03-17T20:24:38.340Z,5.86
2023-03-17T20:27:08.044Z,5.57
2023-03-17T20:29:36.443Z,5.66
2023-03-17T20:32:04.626Z,5.59
2023-03-17T20:34:34.589Z,5.72
2023-03-17T20:37:02.812Z,5.77
2023-03-17T20:39:30.986Z,5.59
2023-03-17T20:41:58.909Z,5.64
2023-03-17T20:44:28.166Z,5.63
2023-03-17T20:46:56.095Z,5.56
2023-03-17T20:49:24.001Z,5.58
2023-03-17T20:51:51.982Z,5.52
2023-03-17T20:54:20.110Z,5.63
2023-03-17T20:56:52.346Z,5.64
2023-03-17T20:59:20.702Z,5.41
2023-03-17T21:01:50.055Z,5.58
2023-03-17T21:04:20.894Z,5.54
2023-03-17T21:06:49.886Z,5.34
2023-03-17T21:09:17.841Z,5.09
2023-03-17T21:11:46.546Z,5.48
2023-03-17T21:14:14.867Z,5.16
2023-03-17T21:16:44.846Z,5.22
2023-03-17T21:19:16.543Z,5.31
2023-03-17T21:21:44.624Z,5.29
2023-03-17T21:24:25.904Z,5.35
2023-03-17T21:26:53.899Z,5.34
2023-03-17T21:29:22.837Z,5.38
2023-03-17T21:31:50.830Z,5.40
2023-03-17T21:34:20.170Z,5.22
2023-03-17T21:36:48.225Z,5.12
2023-03-17T21:39:16.284Z,5.29
2023-03-17T21:41:44.496Z,5.27
2023-03-17T21:44:13.477Z,5.36
2023-03-17T21:46:41.386Z,5.42
2023-03-17T21:49:09.285Z,5.45
2023-03-17T21:51:39.380Z,5.51
2023-03-17T21:54:07.348Z,5.55
2023-03-17T21:56:35.608Z,5.41
2023-03-17T21:59:04.089Z,5.64
2023-03-17T22:01:31.980Z,5.72
2023-03-17T22:04:00.308Z,5.55
2023-03-17T22:06:29.556Z,5.57
2023-03-17T22:08:58.838Z,5.49
2023-03-17T22:11:26.743Z,5.52
2023-03-17T22:13:54.649Z,5.58
2023-03-17T22:16:22.667Z,5.67
2023-03-17T22:18:50.630Z,5.56
2023-03-17T22:21:18.822Z,5.18
2023-03-17T22:23:46.705Z,5.28
2023-03-17T22:26:17.999Z,5.40
2023-03-17T22:28:47.040Z,5.44
2023-03-17T22:31:16.936Z,5.50
2023-03-17T22:33:45.533Z,5.31
2023-03-17T22:36:13.608Z,5.27
2023-03-17T22:38:41.576Z,5.39
2023-03-17T22:41:12.607Z,5.55
2023-03-17T22:43:42.408Z,5.49
2023-03-17T22:46:11.283Z,5.56
2023-03-17T22:48:40.221Z,5.55
2023-03-17T22:51:09.820Z,5.44
2023-03-17T22:53:38.828Z,4.97
2023-03-17T22:56:07.825Z,4.01
2023-03-17T22:58:36.675Z,4.13
2023-03-17T23:01:06.899Z,3.84
2023-03-17T23:03:35.566Z,3.25
2023-03-17T23:06:05.007Z,3.27
2023-03-17T23:08:35.411Z,3.34
2023-03-17T23:11:06.168Z,3.27
2023-03-17T23:13:35.289Z,3.19
2023-03-17T23:16:04.685Z,3.12
2023-03-17T23:18:34.032Z,3.18
2023-03-17T23:21:03.152Z,3.14
2023-03-17T23:23:31.238Z,3.01
2023-03-17T23:25:59.593Z,2.99
2023-03-17T23:28:28.009Z,3.00
2023-03-17T23:30:56.335Z,2.89
2023-03-17T23:33:25.550Z,2.73
2023-03-17T23:35:55.590Z,2.58
2023-03-17T23:38:24.104Z,2.52
2023-03-17T23:40:52.508Z,2.66
2023-03-17T23:43:21.328Z,2.62
2023-03-17T23:45:53.031Z,2.51
2023-03-17T23:48:21.615Z,2.50
2023-03-17T23:50:53.432Z,2.28
2023-03-17T23:53:24.468Z,2.31
2023-03-17T23:55:52.886Z,2.33
2023-03-17T23:58:21.327Z,2.17
